< < Back
Terminal Aerodrome Forecast


Current Version              Previous Versions:   1  2  3  4  5  6  7  8  9  

Terminal Aerodrome Forecast

259
FTUS42 KMLB 182300
TAFDAB
TAF
KDAB 182339Z 1900/1924 00000KT P6SM SCT140 BKN200
     FM190100 34002KT P6SM BKN250
     FM191500 01004KT P6SM BKN250
     FM191700 04005KT P6SM BKN250=

Latest METAR

159
SAUS80 KWBC 190300
MTRDAB
METAR KDAB 190253Z 00000KT 10SM OVC200 13/10 A3014 RMK AO2 SLP204
T01330100 53005


USA.gov is the U.S. government's official web portal to all federal, state and local government web resources and services.